Time;durP1;ratioP1;P1;durP2;ratioP2;P2;SDS_P1;SDS_P2;PMS_P1;PMS_P2;Temp;Humidity;BMP_temperature;BMP_pressure;BME280_temperature;BME280_humidity;BME280_pressure;Samples;Min_cycle;Max_cycle;Signal;HPM_P1;HPM_P2
2022/12/23 00:04:02;;;;;;;;;;;13.90;99.90;;;;;;6127527;23;20325;-80
2022/12/23 00:06:28;;;;;;;;;;;13.80;99.90;;;;;;6127416;23;19976;-80
2022/12/23 00:08:56;;;;;;;;;;;13.80;99.90;;;;;;6127655;23;19988;-80
2022/12/23 00:11:23;;;;;;;;;;;13.80;99.90;;;;;;6101308;23;19905;-80
2022/12/23 00:16:34;;;;;;;;;;;13.80;99.90;;;;;;6127064;23;19916;-81
2022/12/23 00:19:00;;;;;;;;;;;13.90;99.90;;;;;;6101578;23;19933;-81
2022/12/23 00:21:25;;;;;;;;;;;13.80;99.90;;;;;;6127577;23;20297;-81
2022/12/23 00:23:51;;;;;;;;;;;13.90;99.90;;;;;;6127409;23;19988;-80
2022/12/23 00:26:16;;;;;;;;;;;13.90;99.90;;;;;;6127177;23;19909;-79
2022/12/23 00:28:42;;;;;;;;;;;13.90;99.90;;;;;;6127352;23;20308;-80
2022/12/23 00:31:08;;;;;;;;;;;13.90;99.90;;;;;;6101521;23;19905;-80
2022/12/23 00:33:35;;;;;;;;;;;14.00;99.90;;;;;;6101348;23;19987;-80
2022/12/23 00:36:01;;;;;;;;;;;14.00;99.90;;;;;;6127382;23;19980;-79
2022/12/23 00:43:56;;;;;;;;;;;14.10;99.90;;;;;;6127048;23;19912;-78
2022/12/23 00:46:21;;;;;;;;;;;14.10;99.90;;;;;;6127337;23;20324;-79
2022/12/23 00:51:31;;;;;;;;;;;14.10;99.90;;;;;;6127025;23;19912;-78
2022/12/23 00:53:57;;;;;;;;;;;14.10;99.90;;;;;;6127050;23;19913;-79
2022/12/23 00:56:22;;;;;;;;;;;14.20;99.90;;;;;;6127002;23;19951;-80
2022/12/23 00:58:48;;;;;;;;;;;14.20;99.90;;;;;;6127101;23;19928;-78
2022/12/23 01:06:42;;;;;;;;;;;14.20;99.90;;;;;;6126615;23;19959;-78
2022/12/23 01:09:07;;;;;;;;;;;14.30;99.90;;;;;;6127111;23;19988;-79
2022/12/23 01:11:33;;;;;;;;;;;14.30;99.90;;;;;;6127007;23;19905;-79
2022/12/23 01:13:58;;;;;;;;;;;14.30;99.90;;;;;;6126950;23;19944;-79
2022/12/23 01:16:24;;;;;;;;;;;14.40;99.90;;;;;;6127134;23;19929;-79
2022/12/23 01:18:50;;;;;;;;;;;14.30;99.90;;;;;;6126777;23;20243;-79
2022/12/23 01:21:15;;;;;;;;;;;14.30;99.90;;;;;;6127022;23;19905;-78
2022/12/23 01:23:41;;;;;;;;;;;14.30;99.90;;;;;;6127055;23;19908;-79
2022/12/23 01:26:07;;;;;;;;;;;14.20;99.90;;;;;;6126662;23;19944;-79
2022/12/23 01:28:33;;;;;;;;;;;14.20;99.90;;;;;;6126467;23;20324;-80
2022/12/23 01:30:59;;;;;;;;;;;14.20;99.90;;;;;;6126858;23;19943;-79
2022/12/23 01:33:25;;;;;;;;;;;14.20;99.90;;;;;;6126941;23;19909;-78
2022/12/23 01:35:50;;;;;;;;;;;14.20;99.90;;;;;;6126615;23;19913;-78
2022/12/23 01:38:16;;;;;;;;;;;14.20;99.90;;;;;;6126409;23;19964;-79
2022/12/23 01:40:42;;;;;;;;;;;14.20;99.90;;;;;;6126831;23;19905;-78
2022/12/23 01:43:31;;;;;;;;;;;14.30;99.90;;;;;;6100812;23;19905;-80
2022/12/23 01:45:56;;;;;;;;;;;14.20;99.90;;;;;;6110941;23;20351;-78
2022/12/23 01:48:25;;;;;;;;;;;14.20;99.90;;;;;;6099489;23;19909;-79
2022/12/23 01:50:52;;;;;;;;;;;14.20;99.90;;;;;;6126463;23;19909;-79
2022/12/23 01:53:26;;;;;;;;;;;14.20;99.90;;;;;;6126592;23;19944;-78
2022/12/23 01:55:55;;;;;;;;;;;14.20;99.90;;;;;;6126425;23;19917;-79
2022/12/23 01:58:26;;;;;;;;;;;14.30;99.90;;;;;;6126304;23;19976;-79
2022/12/23 02:03:43;;;;;;;;;;;14.30;99.90;;;;;;6126407;23;20302;-79
2022/12/23 02:11:56;;;;;;;;;;;14.40;99.90;;;;;;6126357;23;19912;-79
2022/12/23 02:17:17;;;;;;;;;;;14.40;99.90;;;;;;6126099;23;19928;-81
2022/12/23 02:19:57;;;;;;;;;;;14.30;99.90;;;;;;6126808;23;19905;-79
2022/12/23 02:22:49;;;;;;;;;;;14.40;99.90;;;;;;6126546;23;20324;-78
2022/12/23 02:25:18;;;;;;;;;;;14.30;99.90;;;;;;6081309;23;19912;-77
2022/12/23 02:27:54;;;;;;;;;;;14.40;99.90;;;;;;6126244;23;20332;-78
2022/12/23 02:30:22;;;;;;;;;;;14.30;99.90;;;;;;6126519;23;20003;-79
2022/12/23 02:32:57;;;;;;;;;;;14.20;99.90;;;;;;6126412;23;19909;-79
2022/12/23 02:35:34;;;;;;;;;;;14.30;99.90;;;;;;6126561;23;19905;-78
2022/12/23 02:38:18;;;;;;;;;;;14.30;99.90;;;;;;6126122;23;19960;-78
2022/12/23 02:40:52;;;;;;;;;;;14.30;99.90;;;;;;6126388;23;19910;-79
2022/12/23 02:43:22;;;;;;;;;;;14.40;99.90;;;;;;6100275;23;19912;-79
2022/12/23 02:45:53;;;;;;;;;;;14.40;99.90;;;;;;6127109;23;19905;-78
2022/12/23 02:48:24;;;;;;;;;;;14.40;99.90;;;;;;6099757;23;19905;-78
2022/12/23 02:50:51;;;;;;;;;;;14.40;99.90;;;;;;6128213;23;19985;-78
2022/12/23 02:53:35;;;;;;;;;;;14.40;99.90;;;;;;6128097;23;19909;-78
2022/12/23 02:56:02;;;;;;;;;;;14.50;99.90;;;;;;6128172;23;19999;-78
2022/12/23 02:58:31;;;;;;;;;;;14.40;99.90;;;;;;6127761;23;19905;-79
2022/12/23 03:00:57;;;;;;;;;;;14.50;99.90;;;;;;6128422;23;19928;-78
2022/12/23 03:03:23;;;;;;;;;;;14.50;99.90;;;;;;6128274;23;19905;-79
2022/12/23 03:05:50;;;;;;;;;;;14.50;99.90;;;;;;6128423;23;19905;-78
2022/12/23 03:08:18;;;;;;;;;;;14.60;99.90;;;;;;6127878;23;20299;-78
2022/12/23 03:11:04;;;;;;;;;;;14.60;99.90;;;;;;6128224;23;19905;-79
2022/12/23 03:13:48;;;;;;;;;;;14.50;99.90;;;;;;6127947;23;19991;-79
2022/12/23 03:16:31;;;;;;;;;;;14.50;99.90;;;;;;6128291;23;19905;-78
2022/12/23 03:19:06;;;;;;;;;;;14.50;99.90;;;;;;6127884;23;20324;-79
2022/12/23 03:21:40;;;;;;;;;;;14.50;99.90;;;;;;6128167;23;19909;-79
2022/12/23 03:24:15;;;;;;;;;;;14.50;99.90;;;;;;6128203;23;19904;-78
2022/12/23 03:27:02;;;;;;;;;;;14.50;99.90;;;;;;6127800;23;19909;-78
2022/12/23 03:29:35;;;;;;;;;;;14.50;99.90;;;;;;6128048;23;19927;-78
2022/12/23 03:32:01;;;;;;;;;;;14.50;99.90;;;;;;6128221;23;19909;-78
2022/12/23 03:34:29;;;;;;;;;;;14.50;99.90;;;;;;6127887;23;19916;-78
2022/12/23 03:36:56;;;;;;;;;;;14.50;99.90;;;;;;6127971;23;19952;-78
2022/12/23 03:39:25;;;;;;;;;;;14.50;99.90;;;;;;6127867;23;19905;-79
2022/12/23 03:41:52;;;;;;;;;;;14.50;99.90;;;;;;6127925;23;19909;-78
2022/12/23 03:44:25;;;;;;;;;;;14.50;99.90;;;;;;6127936;23;19980;-78
2022/12/23 03:46:53;;;;;;;;;;;14.50;99.90;;;;;;6128014;23;19909;-78
2022/12/23 03:49:24;;;;;;;;;;;14.50;99.90;;;;;;6100687;23;19935;-78
2022/12/23 03:51:58;;;;;;;;;;;14.40;99.90;;;;;;6127811;23;20036;-78
2022/12/23 03:54:26;;;;;;;;;;;14.40;99.90;;;;;;6127673;23;19924;-79
2022/12/23 03:56:55;;;;;;;;;;;14.40;99.90;;;;;;6127537;23;19963;-79
2022/12/23 03:59:24;;;;;;;;;;;14.40;99.90;;;;;;6126901;23;19975;-79
2022/12/23 04:01:49;;;;;;;;;;;14.40;99.90;;;;;;6127560;23;20336;-77
2022/12/23 04:04:17;;;;;;;;;;;14.50;99.90;;;;;;6127693;23;19912;-78
2022/12/23 04:06:50;;;;;;;;;;;14.50;99.90;;;;;;6127641;23;19937;-78
2022/12/23 04:09:16;;;;;;;;;;;14.50;99.90;;;;;;6127141;23;19912;-78
2022/12/23 04:11:42;;;;;;;;;;;14.40;99.90;;;;;;6127840;23;19905;-78
2022/12/23 04:14:07;;;;;;;;;;;14.40;99.90;;;;;;6127493;23;20351;-79
2022/12/23 04:16:33;;;;;;;;;;;14.40;99.90;;;;;;6127688;23;20343;-79
2022/12/23 04:18:59;;;;;;;;;;;14.40;99.90;;;;;;6127078;23;19905;-78
2022/12/23 04:21:25;;;;;;;;;;;14.40;99.90;;;;;;6127759;23;20384;-79
2022/12/23 04:23:50;;;;;;;;;;;14.40;99.90;;;;;;6127528;23;19947;-79
2022/12/23 04:26:16;;;;;;;;;;;14.40;99.90;;;;;;6127369;23;20321;-78
2022/12/23 04:28:41;;;;;;;;;;;14.40;99.90;;;;;;6127039;23;19962;-78
2022/12/23 04:31:07;;;;;;;;;;;14.50;99.90;;;;;;6127715;23;20328;-78
2022/12/23 04:33:33;;;;;;;;;;;14.50;99.90;;;;;;6127370;23;19960;-79
2022/12/23 04:35:59;;;;;;;;;;;14.60;99.90;;;;;;6127534;23;19905;-78
2022/12/23 04:38:24;;;;;;;;;;;14.60;99.90;;;;;;6127198;23;19954;-78
2022/12/23 04:40:50;;;;;;;;;;;14.60;99.90;;;;;;6101326;23;19909;-79
2022/12/23 04:43:16;;;;;;;;;;;14.60;99.90;;;;;;6127483;23;19936;-79
2022/12/23 04:45:41;;;;;;;;;;;14.60;99.90;;;;;;6101425;23;19905;-78
2022/12/23 04:48:08;;;;;;;;;;;14.70;99.90;;;;;;6127061;23;19905;-78
2022/12/23 04:50:33;;;;;;;;;;;14.70;99.90;;;;;;6100390;23;19944;-78
2022/12/23 04:52:59;;;;;;;;;;;14.60;99.90;;;;;;6127084;23;19916;-78
2022/12/23 04:55:24;;;;;;;;;;;14.60;99.90;;;;;;6100974;23;19951;-79
2022/12/23 04:57:50;;;;;;;;;;;14.70;99.90;;;;;;6126915;23;20020;-79
2022/12/23 05:00:16;;;;;;;;;;;14.60;99.90;;;;;;6127364;23;20249;-78
2022/12/23 05:02:41;;;;;;;;;;;14.50;99.90;;;;;;6126765;23;19944;-79
2022/12/23 05:05:07;;;;;;;;;;;14.60;99.90;;;;;;6127203;23;20296;-78
2022/12/23 05:07:32;;;;;;;;;;;14.60;99.90;;;;;;6127017;23;19908;-78
2022/12/23 05:10:00;;;;;;;;;;;14.60;99.90;;;;;;6101111;23;19906;-78
2022/12/23 05:12:30;;;;;;;;;;;14.60;99.90;;;;;;6126934;23;20339;-78
2022/12/23 05:14:55;;;;;;;;;;;14.70;99.90;;;;;;6127058;23;19947;-79
2022/12/23 05:17:21;;;;;;;;;;;14.70;99.90;;;;;;6126938;23;19905;-79
2022/12/23 05:19:46;;;;;;;;;;;14.70;99.90;;;;;;6126960;23;19968;-78
2022/12/23 05:22:12;;;;;;;;;;;14.70;99.90;;;;;;6126976;23;19905;-78
2022/12/23 05:24:37;;;;;;;;;;;14.70;99.90;;;;;;6126982;23;20383;-78
2022/12/23 05:27:03;;;;;;;;;;;14.70;99.90;;;;;;6126980;23;19911;-79
2022/12/23 05:29:28;;;;;;;;;;;14.60;99.90;;;;;;6126531;23;19956;-78
2022/12/23 05:31:54;;;;;;;;;;;14.70;99.90;;;;;;6126922;23;20328;-77
2022/12/23 05:34:20;;;;;;;;;;;14.70;99.90;;;;;;6126764;23;19916;-78
2022/12/23 05:36:46;;;;;;;;;;;14.60;99.90;;;;;;6127151;23;19905;-78
2022/12/23 05:39:11;;;;;;;;;;;14.50;99.90;;;;;;6126435;23;19915;-78
2022/12/23 05:41:37;;;;;;;;;;;14.50;99.90;;;;;;6126925;23;19912;-77
2022/12/23 05:44:02;;;;;;;;;;;14.50;99.90;;;;;;6126780;23;19905;-78
2022/12/23 05:46:28;;;;;;;;;;;14.40;99.90;;;;;;6126893;23;19905;-78
2022/12/23 05:48:54;;;;;;;;;;;14.30;99.90;;;;;;6099313;23;19912;-78
2022/12/23 05:51:19;;;;;;;;;;;14.30;99.90;;;;;;6126839;23;19913;-79
2022/12/23 05:53:45;;;;;;;;;;;14.30;99.90;;;;;;6126614;23;19916;-80
2022/12/23 05:56:10;;;;;;;;;;;14.20;99.90;;;;;;6126607;23;19920;-80
2022/12/23 05:58:36;;;;;;;;;;;14.20;99.90;;;;;;6126515;23;19905;-81
2022/12/23 06:01:02;;;;;;;;;;;14.20;99.90;;;;;;6126580;23;20217;-80
2022/12/23 06:03:28;;;;;;;;;;;14.20;99.90;;;;;;6126618;23;19905;-81
2022/12/23 06:05:53;;;;;;;;;;;14.20;99.90;;;;;;6126641;23;20332;-81
2022/12/23 06:08:19;;;;;;;;;;;14.20;99.90;;;;;;6126246;23;19954;-80
2022/12/23 06:10:45;;;;;;;;;;;14.20;99.90;;;;;;6126637;23;19985;-81
2022/12/23 06:13:11;;;;;;;;;;;14.10;99.90;;;;;;6126332;23;20307;-81
2022/12/23 06:15:37;;;;;;;;;;;14.10;99.90;;;;;;6126598;23;19906;-80
2022/12/23 06:18:02;;;;;;;;;;;14.10;99.90;;;;;;6126209;23;19912;-79
2022/12/23 06:20:28;;;;;;;;;;;14.00;99.90;;;;;;6126568;23;19912;-80
2022/12/23 06:22:53;;;;;;;;;;;14.00;99.90;;;;;;6126364;23;19912;-80
2022/12/23 06:25:19;;;;;;;;;;;14.00;99.90;;;;;;6126358;23;19960;-80
2022/12/23 06:27:45;;;;;;;;;;;14.00;99.90;;;;;;6126401;23;19929;-80
2022/12/23 06:30:11;;;;;;;;;;;14.00;99.90;;;;;;6126472;23;20333;-80
2022/12/23 06:32:36;;;;;;;;;;;14.00;99.90;;;;;;6126395;23;19912;-80
2022/12/23 06:35:02;;;;;;;;;;;14.00;99.90;;;;;;6126460;23;19988;-81
2022/12/23 06:37:27;;;;;;;;;;;14.00;99.90;;;;;;6126281;23;19928;-81
2022/12/23 06:39:53;;;;;;;;;;;14.00;99.90;;;;;;6125960;23;19936;-80
2022/12/23 06:42:18;;;;;;;;;;;14.00;99.90;;;;;;6126383;23;19960;-80
2022/12/23 06:44:44;;;;;;;;;;;14.00;99.90;;;;;;6126372;23;20343;-81
2022/12/23 06:47:10;;;;;;;;;;;14.00;99.90;;;;;;6126439;23;19984;-81
2022/12/23 06:49:35;;;;;;;;;;;13.90;99.90;;;;;;6099069;23;20331;-81
2022/12/23 06:52:01;;;;;;;;;;;14.00;99.90;;;;;;6126444;23;19905;-82
2022/12/23 06:54:26;;;;;;;;;;;14.00;99.90;;;;;;6126168;23;19909;-81
2022/12/23 06:56:52;;;;;;;;;;;14.00;99.90;;;;;;6126282;23;19972;-79
2022/12/23 06:59:18;;;;;;;;;;;14.00;99.90;;;;;;6125931;23;20388;-80
2022/12/23 07:01:43;;;;;;;;;;;14.10;99.90;;;;;;6126227;23;19956;-80
2022/12/23 07:04:09;;;;;;;;;;;14.10;99.90;;;;;;6126417;23;20244;-80
2022/12/23 07:06:34;;;;;;;;;;;14.10;99.90;;;;;;6126332;23;19943;-80
2022/12/23 07:09:00;;;;;;;;;;;14.10;99.90;;;;;;6126102;23;19909;-80
2022/12/23 07:11:26;;;;;;;;;;;14.20;99.90;;;;;;6126178;23;20324;-79
2022/12/23 07:13:51;;;;;;;;;;;14.20;99.90;;;;;;6126196;23;19909;-80
2022/12/23 07:16:17;;;;;;;;;;;14.30;99.90;;;;;;6126316;23;19912;-77
2022/12/23 07:18:42;;;;;;;;;;;14.30;99.90;;;;;;6126006;23;19984;-80
2022/12/23 07:21:08;;;;;;;;;;;14.30;99.90;;;;;;6100390;23;19905;-80
2022/12/23 07:23:34;;;;;;;;;;;14.40;99.90;;;;;;6126247;23;19905;-80
2022/12/23 07:25:59;;;;;;;;;;;14.30;99.90;;;;;;6126110;23;19912;-80
2022/12/23 07:28:25;;;;;;;;;;;14.40;99.90;;;;;;6125899;23;19912;-79
2022/12/23 07:30:50;;;;;;;;;;;14.40;99.90;;;;;;6126236;23;20253;-80
2022/12/23 07:33:16;;;;;;;;;;;14.40;99.90;;;;;;6100229;23;19961;-80
2022/12/23 07:35:41;;;;;;;;;;;14.50;99.90;;;;;;6127696;23;19912;-80
2022/12/23 07:38:07;;;;;;;;;;;14.40;99.90;;;;;;6127706;23;19904;-79
2022/12/23 07:40:33;;;;;;;;;;;14.40;99.90;;;;;;6128192;23;19905;-79
2022/12/23 07:42:59;;;;;;;;;;;14.40;99.90;;;;;;6127806;23;20284;-80
2022/12/23 07:45:25;;;;;;;;;;;14.40;99.90;;;;;;6127911;23;19912;-80
2022/12/23 07:47:52;;;;;;;;;;;14.40;99.90;;;;;;6101656;23;19960;-80
2022/12/23 07:50:17;;;;;;;;;;;14.30;99.90;;;;;;6100851;23;19988;-79
2022/12/23 07:52:43;;;;;;;;;;;14.40;99.90;;;;;;6127574;23;19997;-79
2022/12/23 07:55:09;;;;;;;;;;;14.30;99.90;;;;;;6127676;23;19917;-79
2022/12/23 07:57:37;;;;;;;;;;;14.30;99.90;;;;;;6101312;23;20168;-80
2022/12/23 08:00:08;;;;;;;;;;;14.20;99.90;;;;;;6127354;23;20292;-79
2022/12/23 08:02:34;;;;;;;;;;;14.30;99.90;;;;;;6127240;23;19984;-78
2022/12/23 08:04:59;;;;;;;;;;;14.30;99.90;;;;;;6127747;23;19959;-79
2022/12/23 08:07:25;;;;;;;;;;;14.30;99.90;;;;;;6127687;23;19951;-79
2022/12/23 08:09:50;;;;;;;;;;;14.40;99.90;;;;;;6127188;23;20332;-78
2022/12/23 08:12:16;;;;;;;;;;;14.30;99.90;;;;;;6127808;23;19988;-79
2022/12/23 08:14:41;;;;;;;;;;;14.40;99.90;;;;;;6127490;23;19913;-79
2022/12/23 08:17:07;;;;;;;;;;;14.30;99.90;;;;;;6127658;23;19905;-79
2022/12/23 08:19:33;;;;;;;;;;;14.40;99.90;;;;;;6127421;23;19937;-79
2022/12/23 08:21:59;;;;;;;;;;;14.30;99.90;;;;;;6128256;23;20248;-80
2022/12/23 08:24:24;;;;;;;;;;;14.40;99.90;;;;;;6127815;23;19980;-79
2022/12/23 08:26:50;;;;;;;;;;;14.40;99.90;;;;;;6127905;23;19991;-79
2022/12/23 08:29:15;;;;;;;;;;;14.30;99.90;;;;;;6127767;23;20362;-79
2022/12/23 08:31:41;;;;;;;;;;;14.40;99.90;;;;;;6127897;23;19960;-79
2022/12/23 08:34:07;;;;;;;;;;;14.40;99.90;;;;;;6127850;23;19992;-78
2022/12/23 08:36:33;;;;;;;;;;;14.40;99.90;;;;;;6128086;23;19907;-79
2022/12/23 08:39:02;;;;;;;;;;;14.40;99.90;;;;;;6127291;23;19905;-80
2022/12/23 08:41:29;;;;;;;;;;;14.40;99.90;;;;;;6127783;23;20429;-80
2022/12/23 08:43:55;;;;;;;;;;;14.40;99.90;;;;;;6127818;23;20324;-79
2022/12/23 08:46:21;;;;;;;;;;;14.40;99.90;;;;;;6128189;23;19909;-79
2022/12/23 08:48:47;;;;;;;;;;;14.40;99.90;;;;;;6127549;23;19976;-78
2022/12/23 08:51:13;;;;;;;;;;;14.30;99.90;;;;;;6100724;23;20331;-79
2022/12/23 08:53:39;;;;;;;;;;;14.40;99.90;;;;;;6127499;23;19909;-79
2022/12/23 08:56:06;;;;;;;;;;;14.40;99.90;;;;;;6127526;23;19973;-79
2022/12/23 08:58:36;;;;;;;;;;;14.50;99.90;;;;;;6127304;23;19909;-79
2022/12/23 09:01:03;;;;;;;;;;;14.60;88.20;;;;;;6127441;23;19977;-79
2022/12/23 09:03:29;;;;;;;;;;;14.70;1.00;;;;;;6127803;23;19912;-79
2022/12/23 09:05:54;;;;;;;;;;;14.70;1.00;;;;;;6127776;23;19906;-78
2022/12/23 09:08:20;;;;;;;;;;;14.70;99.90;;;;;;6127336;23;19905;-79
2022/12/23 09:10:45;;;;;;;;;;;14.70;1.00;;;;;;6127725;23;20328;-78
2022/12/23 09:13:11;;;;;;;;;;;14.70;99.90;;;;;;6127496;23;19917;-79
2022/12/23 09:15:41;;;;;;;;;;;14.70;99.90;;;;;;6127887;23;19937;-79
2022/12/23 09:18:06;;;;;;;;;;;14.70;1.00;;;;;;6127516;23;19905;-80
2022/12/23 09:20:32;;;;;;;;;;;14.70;99.90;;;;;;6127110;23;19909;-78
2022/12/23 09:23:01;;;;;;;;;;;14.60;99.90;;;;;;6101787;23;19909;-78
2022/12/23 09:25:26;;;;;;;;;;;14.60;99.90;;;;;;6101637;23;19941;-79
2022/12/23 09:27:52;;;;;;;;;;;14.60;1.00;;;;;;6127432;23;19912;-78
2022/12/23 09:30:18;;;;;;;;;;;14.50;99.90;;;;;;6126900;23;19912;-78
2022/12/23 09:32:43;;;;;;;;;;;14.50;1.00;;;;;;6126826;23;19905;-79
2022/12/23 09:35:09;;;;;;;;;;;14.40;1.00;;;;;;6127296;23;19905;-78
2022/12/23 09:37:35;;;;;;;;;;;14.30;1.00;;;;;;6127518;23;19942;-79
2022/12/23 09:40:01;;;;;;;;;;;14.20;99.90;;;;;;6127036;23;20347;-77
2022/12/23 09:42:43;;;;;;;;;;;14.20;99.90;;;;;;6127202;23;19905;-78
2022/12/23 09:45:11;;;;;;;;;;;14.10;99.90;;;;;;6127719;23;19905;-78
2022/12/23 09:47:38;;;;;;;;;;;14.10;99.90;;;;;;6127502;23;19943;-77
2022/12/23 09:50:15;;;;;;;;;;;14.20;99.90;;;;;;6126980;23;19905;-78
2022/12/23 09:52:53;;;;;;;;;;;14.20;99.90;;;;;;6099929;23;20398;-78
2022/12/23 09:55:20;;;;;;;;;;;14.20;99.90;;;;;;6127180;23;19924;-79
2022/12/23 09:57:49;;;;;;;;;;;14.30;99.90;;;;;;6101013;23;20197;-79
2022/12/23 10:00:18;;;;;;;;;;;14.30;99.90;;;;;;6127015;23;19944;-78
2022/12/23 10:03:02;;;;;;;;;;;14.30;99.90;;;;;;6127536;23;19909;-79
2022/12/23 10:05:34;;;;;;;;;;;14.40;99.90;;;;;;6126963;23;19905;-78
2022/12/23 10:08:15;;;;;;;;;;;14.50;99.90;;;;;;6126988;23;19989;-78
2022/12/23 10:10:42;;;;;;;;;;;14.60;1.00;;;;;;6126954;23;19916;-79
2022/12/23 10:13:16;;;;;;;;;;;14.60;56.90;;;;;;6126710;23;19909;-78
2022/12/23 10:15:44;;;;;;;;;;;14.70;1.00;;;;;;6127124;23;19909;-79
2022/12/23 10:18:29;;;;;;;;;;;14.70;1.00;;;;;;6127302;23;19912;-79
2022/12/23 10:20:58;;;;;;;;;;;14.80;99.90;;;;;;6090690;23;19952;-79
2022/12/23 10:23:31;;;;;;;;;;;14.90;99.90;;;;;;6126687;23;19905;-79
2022/12/23 10:25:57;;;;;;;;;;;15.10;1.00;;;;;;6127119;23;20382;-79
2022/12/23 10:28:23;;;;;;;;;;;15.50;99.90;;;;;;6127369;23;19956;-79
2022/12/23 10:31:00;;;;;;;;;;;15.80;99.90;;;;;;6126663;23;19909;-79
2022/12/23 10:33:35;;;;;;;;;;;16.80;1.00;;;;;;6126688;23;19916;-79
2022/12/23 10:36:06;;;;;;;;;;;16.80;99.90;;;;;;6126667;23;19905;-79
2022/12/23 10:39:02;;;;;;;;;;;16.30;99.90;;;;;;6126436;23;19909;-78
2022/12/23 10:41:47;;;;;;;;;;;16.40;1.00;;;;;;6101880;23;19905;-79
2022/12/23 10:44:13;;;;;;;;;;;16.40;99.90;;;;;;6106092;23;19905;-79
2022/12/23 10:46:44;;;;;;;;;;;16.30;99.90;;;;;;6126267;23;19905;-79
2022/12/23 10:49:16;;;;;;;;;;;16.00;99.90;;;;;;6099943;23;19905;-79
2022/12/23 10:51:41;;;;;;;;;;;16.00;1.00;;;;;;6099458;23;20251;-80
2022/12/23 10:54:25;;;;;;;;;;;16.30;99.90;;;;;;6126351;23;19925;-79
2022/12/23 10:56:51;;;;;;;;;;;16.20;99.90;;;;;;6126311;23;19921;-79
2022/12/23 10:59:20;;;;;;;;;;;16.00;99.90;;;;;;6126140;23;19937;-78
2022/12/23 11:01:51;;;;;;;;;;;16.00;99.90;;;;;;6126308;23;19912;-78
2022/12/23 11:04:18;;;;;;;;;;;15.90;99.90;;;;;;6126420;23;20343;-79
2022/12/23 11:06:47;;;;;;;;;;;15.80;99.90;;;;;;6126447;23;19912;-79
2022/12/23 11:09:18;;;;;;;;;;;15.80;99.90;;;;;;6126864;23;20375;-79
2022/12/23 11:11:55;;;;;;;;;;;15.70;99.90;;;;;;6128675;23;19905;-78
2022/12/23 11:14:40;;;;;;;;;;;15.70;99.90;;;;;;6128451;23;19913;-80
2022/12/23 11:17:20;;;;;;;;;;;15.90;99.90;;;;;;6102680;23;19912;-79
2022/12/23 11:19:45;;;;;;;;;;;16.00;99.90;;;;;;6128421;23;20309;-80
2022/12/23 11:22:22;;;;;;;;;;;16.20;99.90;;;;;;6128543;23;19936;-79
2022/12/23 11:24:47;;;;;;;;;;;16.40;99.90;;;;;;6128397;23;19912;-79
2022/12/23 11:27:15;;;;;;;;;;;16.50;99.90;;;;;;6128631;23;19905;-79
2022/12/23 11:29:44;;;;;;;;;;;16.60;99.90;;;;;;6128148;23;19987;-79
2022/12/23 11:32:14;;;;;;;;;;;16.70;99.90;;;;;;6128712;23;20302;-80
2022/12/23 11:34:43;;;;;;;;;;;17.00;99.90;;;;;;6127971;23;20244;-79
2022/12/23 11:37:22;;;;;;;;;;;16.60;99.90;;;;;;6127876;23;19912;-78
2022/12/23 11:39:47;;;;;;;;;;;16.70;99.90;;;;;;6127647;23;19909;-79
2022/12/23 11:42:18;;;;;;;;;;;17.00;99.90;;;;;;6125637;23;20443;-79
2022/12/23 11:44:49;;;;;;;;;;;16.90;99.90;;;;;;6095247;23;19905;-80
2022/12/23 11:47:22;;;;;;;;;;;17.10;99.90;;;;;;6124216;23;19912;-78
2022/12/23 11:49:49;;;;;;;;;;;17.70;99.90;;;;;;6127989;23;19905;-79
2022/12/23 11:52:19;;;;;;;;;;;18.00;99.90;;;;;;6100872;23;19952;-79
2022/12/23 11:54:49;;;;;;;;;;;17.60;99.90;;;;;;6127892;23;19916;-78
2022/12/23 11:57:17;;;;;;;;;;;17.10;99.90;;;;;;6128044;23;19924;-78
2022/12/23 11:59:45;;;;;;;;;;;16.80;99.90;;;;;;6127636;23;19912;-79
2022/12/23 12:02:25;;;;;;;;;;;16.40;99.90;;;;;;6127721;23;19980;-79
2022/12/23 12:04:56;;;;;;;;;;;16.20;99.90;;;;;;6127711;23;19905;-78
2022/12/23 12:07:22;;;;;;;;;;;16.20;99.90;;;;;;6127793;23;20338;-78
2022/12/23 12:09:50;;;;;;;;;;;16.10;99.90;;;;;;6127723;23;19905;-78
2022/12/23 12:12:18;;;;;;;;;;;16.40;99.90;;;;;;6101660;23;19905;-79
2022/12/23 12:14:51;;;;;;;;;;;17.20;99.90;;;;;;6127510;23;19909;-78
2022/12/23 12:17:21;;;;;;;;;;;17.80;99.90;;;;;;6127724;23;19905;-79
2022/12/23 12:19:56;;;;;;;;;;;18.50;99.90;;;;;;6101478;23;19905;-79
2022/12/23 12:22:29;;;;;;;;;;;18.70;89.70;;;;;;6127497;23;19909;-79
2022/12/23 12:24:55;;;;;;;;;;;18.30;94.90;;;;;;6095866;23;19999;-79
2022/12/23 12:27:28;;;;;;;;;;;17.70;99.90;;;;;;6119755;23;20243;-78
2022/12/23 12:29:56;;;;;;;;;;;16.90;99.90;;;;;;6099791;23;19905;-78
2022/12/23 12:32:27;;;;;;;;;;;16.40;99.90;;;;;;6127644;23;19909;-79
2022/12/23 12:34:59;;;;;;;;;;;16.30;99.90;;;;;;6127608;23;19916;-79
2022/12/23 12:37:33;;;;;;;;;;;16.20;99.90;;;;;;6127309;23;19933;-78
2022/12/23 12:40:02;;;;;;;;;;;16.10;99.90;;;;;;6127222;23;19905;-78
2022/12/23 12:42:31;;;;;;;;;;;16.00;99.90;;;;;;6127382;23;19905;-79
2022/12/23 12:45:12;;;;;;;;;;;16.00;99.90;;;;;;6127436;23;20353;-79
2022/12/23 12:47:42;;;;;;;;;;;15.90;99.90;;;;;;6127695;23;19905;-80
2022/12/23 12:50:14;;;;;;;;;;;15.80;99.90;;;;;;6126852;23;19905;-79
2022/12/23 12:52:40;;;;;;;;;;;15.80;99.90;;;;;;6099711;23;19975;-79
2022/12/23 12:55:12;;;;;;;;;;;15.60;99.90;;;;;;6126651;23;19915;-78
2022/12/23 12:57:38;;;;;;;;;;;15.60;99.90;;;;;;6127662;23;20273;-78
2022/12/23 13:00:07;;;;;;;;;;;15.60;99.90;;;;;;6127518;23;19940;-79
2022/12/23 13:02:32;;;;;;;;;;;15.70;99.90;;;;;;6126846;23;20402;-78
2022/12/23 13:05:14;;;;;;;;;;;15.70;99.90;;;;;;6127510;23;19909;-79
2022/12/23 13:08:15;;;;;;;;;;;15.80;99.90;;;;;;6128040;23;19906;-78
2022/12/23 13:10:41;;;;;;;;;;;15.70;99.90;;;;;;6009734;23;19906;-78
2022/12/23 13:13:09;;;;;;;;;;;15.70;99.90;;;;;;6102422;23;19943;-78
2022/12/23 13:15:55;;;;;;;;;;;15.60;99.90;;;;;;6101769;23;19908;-79
2022/12/23 13:18:35;;;;;;;;;;;15.40;99.90;;;;;;6126331;23;20225;-78
2022/12/23 13:21:01;;;;;;;;;;;15.40;99.90;;;;;;6127227;23;20316;-79
2022/12/23 13:23:47;;;;;;;;;;;15.30;99.90;;;;;;6127658;23;20300;-78
2022/12/23 13:26:18;;;;;;;;;;;15.30;99.90;;;;;;6126101;23;19952;-79
2022/12/23 13:28:43;;;;;;;;;;;15.20;99.90;;;;;;6127515;23;19905;-80
2022/12/23 13:31:09;;;;;;;;;;;15.20;99.90;;;;;;6127333;23;19948;-79
2022/12/23 13:33:40;;;;;;;;;;;15.30;99.90;;;;;;6127161;23;19909;-78
2022/12/23 13:36:37;;;;;;;;;;;15.30;99.90;;;;;;6127520;23;19912;-79
2022/12/23 13:39:22;;;;;;;;;;;15.50;99.90;;;;;;6038186;23;19940;-78
2022/12/23 13:41:52;;;;;;;;;;;15.60;99.90;;;;;;6127812;23;19909;-78
2022/12/23 13:44:18;;;;;;;;;;;15.70;99.90;;;;;;6127110;23;19905;-78
2022/12/23 13:46:44;;;;;;;;;;;15.40;99.90;;;;;;6127328;23;20331;-78
2022/12/23 13:49:09;;;;;;;;;;;15.30;99.90;;;;;;6127268;23;19905;-79
2022/12/23 13:51:42;;;;;;;;;;;15.30;99.90;;;;;;6100197;23;20313;-78
2022/12/23 13:54:19;;;;;;;;;;;15.40;99.90;;;;;;6100637;23;19909;-78
2022/12/23 13:56:45;;;;;;;;;;;15.30;99.90;;;;;;6126560;23;19924;-77
2022/12/23 13:59:11;;;;;;;;;;;15.30;99.90;;;;;;6127253;23;20232;-78
2022/12/23 14:01:40;;;;;;;;;;;15.20;99.90;;;;;;6100703;23;20248;-79
2022/12/23 14:04:24;;;;;;;;;;;15.30;99.90;;;;;;6127022;23;20343;-79
2022/12/23 14:06:51;;;;;;;;;;;15.20;99.90;;;;;;6127013;23;19905;-78
2022/12/23 14:09:26;;;;;;;;;;;15.20;99.90;;;;;;6127287;23;19943;-79
2022/12/23 14:11:52;;;;;;;;;;;15.10;99.90;;;;;;6127049;23;19909;-79
2022/12/23 14:14:23;;;;;;;;;;;15.20;99.90;;;;;;6126867;23;20375;-78
2022/12/23 14:17:11;;;;;;;;;;;15.30;99.90;;;;;;6127044;23;20354;-78
2022/12/23 14:19:41;;;;;;;;;;;15.20;99.90;;;;;;6126731;23;19975;-77
2022/12/23 14:22:06;;;;;;;;;;;15.10;99.90;;;;;;6126846;23;20324;-78
2022/12/23 14:24:35;;;;;;;;;;;15.10;99.90;;;;;;6127196;23;19959;-77
2022/12/23 14:27:19;;;;;;;;;;;15.10;99.90;;;;;;6127112;23;19919;-78
2022/12/23 14:29:45;;;;;;;;;;;15.10;99.90;;;;;;6126874;23;19909;-78
2022/12/23 14:32:18;;;;;;;;;;;14.90;99.90;;;;;;6127055;23;19956;-78
2022/12/23 14:35:02;;;;;;;;;;;14.90;99.90;;;;;;6126837;23;20320;-78
2022/12/23 14:37:35;;;;;;;;;;;14.90;99.90;;;;;;6126735;23;19988;-77
2022/12/23 14:40:19;;;;;;;;;;;15.00;99.90;;;;;;6126817;23;20335;-78
2022/12/23 14:42:44;;;;;;;;;;;15.00;99.90;;;;;;6127374;23;19905;-78
2022/12/23 14:45:28;;;;;;;;;;;15.00;99.90;;;;;;6129112;23;20311;-78
2022/12/23 14:47:54;;;;;;;;;;;15.10;99.90;;;;;;6128924;23;19928;-77
2022/12/23 14:50:32;;;;;;;;;;;15.00;99.90;;;;;;6128691;23;20308;-78
2022/12/23 14:52:58;;;;;;;;;;;14.90;99.90;;;;;;6101541;23;19917;-77
2022/12/23 14:55:28;;;;;;;;;;;14.80;99.90;;;;;;6128717;23;19924;-78
2022/12/23 14:58:01;;;;;;;;;;;14.70;99.90;;;;;;6128689;23;19905;-78
2022/12/23 15:00:28;;;;;;;;;;;14.70;99.90;;;;;;6128724;23;19912;-77